createdAt,value
2023-03-15T00:00:49.799Z,34.60
2023-03-15T00:05:53.998Z,34.50
2023-03-15T00:10:56.856Z,34.50
2023-03-15T00:16:01.570Z,34.50
2023-03-15T00:21:06.150Z,35.10
2023-03-15T00:26:09.004Z,34.60
2023-03-15T00:31:16.586Z,34.60
2023-03-15T00:36:23.528Z,34.70
2023-03-15T00:41:26.438Z,35.30
2023-03-15T00:46:29.574Z,34.70
2023-03-15T00:51:33.812Z,34.70
2023-03-15T00:56:37.923Z,34.70
2023-03-15T01:01:44.532Z,34.80
2023-03-15T01:06:48.724Z,34.80
2023-03-15T01:11:52.259Z,34.70
2023-03-15T01:16:55.122Z,34.80
2023-03-15T01:21:59.276Z,34.90
2023-03-15T01:27:02.089Z,34.90
2023-03-15T01:32:05.597Z,35.00
2023-03-15T01:37:10.146Z,35.00
2023-03-15T01:42:13.039Z,34.90
2023-03-15T01:47:15.889Z,34.90
2023-03-15T01:52:24.126Z,34.90
2023-03-15T01:57:30.490Z,34.90
2023-03-15T02:02:33.451Z,34.80
2023-03-15T02:07:50.034Z,35.40
2023-03-15T02:12:54.007Z,34.80
2023-03-15T02:17:56.997Z,34.70
2023-03-15T02:23:03.577Z,35.40
2023-03-15T02:28:10.229Z,34.80
2023-03-15T02:33:17.988Z,34.80
2023-03-15T02:38:22.589Z,34.80
2023-03-15T02:43:30.642Z,34.90
2023-03-15T02:48:36.965Z,34.80
2023-03-15T02:53:39.835Z,34.80
2023-03-15T02:58:45.706Z,34.80
2023-03-15T03:03:48.799Z,34.70
2023-03-15T03:08:51.641Z,34.70
2023-03-15T03:13:55.869Z,34.70
2023-03-15T03:18:58.751Z,34.70
2023-03-15T03:24:01.643Z,34.70
2023-03-15T03:29:06.623Z,34.80
2023-03-15T03:34:09.586Z,34.80
2023-03-15T03:39:12.660Z,34.80
2023-03-15T03:44:17.129Z,34.80
2023-03-15T03:49:19.932Z,34.70
2023-03-15T03:54:23.103Z,34.70
2023-03-15T03:59:27.266Z,34.60
2023-03-15T04:04:30.147Z,34.70
2023-03-15T04:09:37.738Z,34.80
2023-03-15T04:14:41.974Z,34.70
2023-03-15T04:19:46.900Z,34.60
2023-03-15T04:24:50.686Z,34.40
2023-03-15T04:29:54.922Z,34.40
2023-03-15T04:34:57.705Z,34.20
2023-03-15T04:40:01.219Z,34.30
2023-03-15T04:45:06.343Z,34.20
2023-03-15T04:50:10.859Z,34.20
2023-03-15T04:55:14.218Z,34.20
2023-03-15T05:00:19.092Z,34.10
2023-03-15T05:05:23.382Z,34.10
2023-03-15T05:10:26.374Z,34.20
2023-03-15T05:15:30.545Z,34.30
2023-03-15T05:20:33.433Z,34.30
2023-03-15T05:25:38.356Z,34.10
2023-03-15T05:30:43.128Z,33.90
2023-03-15T05:35:46.242Z,33.80
2023-03-15T05:40:49.084Z,33.70
2023-03-15T05:45:54.859Z,33.80
2023-03-15T05:50:57.743Z,33.70
2023-03-15T05:56:00.606Z,33.70
2023-03-15T06:01:05.726Z,33.80
2023-03-15T06:06:08.710Z,33.70
2023-03-15T06:11:11.561Z,33.90
2023-03-15T06:16:15.728Z,33.20
2023-03-15T06:21:18.630Z,33.30
2023-03-15T06:26:22.610Z,33.30
2023-03-15T06:31:26.793Z,33.30
2023-03-15T06:36:30.823Z,33.10
2023-03-15T06:41:33.669Z,32.90
2023-03-15T06:46:37.917Z,33.30
2023-03-15T06:51:42.575Z,32.20
2023-03-15T06:56:45.441Z,32.80
2023-03-15T07:01:49.958Z,32.80
2023-03-15T07:06:53.038Z,32.30
2023-03-15T07:11:55.872Z,32.40
2023-03-15T07:17:00.102Z,27.60
2023-03-15T07:22:02.931Z,30.00
2023-03-15T07:27:06.527Z,28.80
2023-03-15T07:32:10.876Z,30.00
2023-03-15T07:37:13.848Z,30.40
2023-03-15T07:42:16.789Z,31.10
2023-03-15T07:47:21.000Z,31.50
2023-03-15T07:52:24.342Z,31.70
2023-03-15T07:57:28.950Z,31.60
2023-03-15T08:02:33.290Z,32.00
2023-03-15T08:07:36.565Z,32.30
2023-03-15T08:12:40.675Z,32.40
2023-03-15T08:17:45.156Z,32.50
2023-03-15T08:22:49.055Z,32.70
2023-03-15T08:27:52.640Z,32.80
2023-03-15T08:32:56.910Z,32.80
2023-03-15T08:37:59.749Z,33.00
2023-03-15T08:43:02.600Z,33.10
2023-03-15T08:48:07.375Z,33.30
2023-03-15T08:53:10.495Z,33.30
2023-03-15T08:58:14.394Z,33.40
2023-03-15T09:03:19.170Z,33.50
2023-03-15T09:08:21.987Z,33.70
2023-03-15T09:13:25.685Z,33.80
2023-03-15T09:18:30.226Z,33.80
2023-03-15T09:23:33.046Z,33.90
2023-03-15T09:28:35.905Z,34.00
2023-03-15T09:33:40.110Z,34.00
2023-03-15T09:38:44.346Z,34.10
2023-03-15T09:44:10.812Z,33.50
2023-03-15T09:49:20.487Z,34.00
2023-03-15T09:54:29.273Z,34.20
2023-03-15T09:59:35.532Z,34.40
2023-03-15T10:04:42.242Z,34.50
2023-03-15T10:09:47.449Z,34.70
2023-03-15T10:15:03.337Z,34.70
2023-03-15T10:20:13.076Z,34.80
2023-03-15T10:25:23.489Z,34.90
2023-03-15T10:30:27.997Z,34.90
2023-03-15T10:35:33.081Z,34.90
2023-03-15T10:40:44.684Z,34.90
2023-03-15T10:46:01.293Z,35.00
2023-03-15T10:51:07.982Z,35.00
2023-03-15T10:56:25.964Z,35.10
2023-03-15T11:01:34.536Z,35.20
2023-03-15T11:06:43.587Z,35.30
2023-03-15T11:11:54.765Z,35.30
2023-03-15T11:17:00.148Z,35.40
2023-03-15T11:22:04.737Z,35.40
2023-03-15T11:27:14.037Z,35.50
2023-03-15T11:32:20.039Z,35.50
2023-03-15T11:37:29.154Z,35.50
2023-03-15T11:42:35.753Z,35.50
2023-03-15T11:47:44.651Z,35.50
2023-03-15T11:52:51.531Z,35.50
2023-03-15T11:57:56.747Z,35.50
2023-03-15T12:03:01.870Z,35.60
2023-03-15T12:08:21.316Z,35.60
2023-03-15T12:13:26.370Z,35.70
2023-03-15T12:18:44.699Z,35.80
2023-03-15T12:24:01.523Z,35.80
2023-03-15T12:29:09.825Z,35.90
2023-03-15T12:34:16.744Z,36.00
2023-03-15T12:39:41.394Z,36.10
2023-03-15T12:44:45.261Z,36.20
2023-03-15T12:49:48.375Z,36.20
2023-03-15T12:54:59.270Z,36.40
2023-03-15T13:00:06.776Z,36.60
2023-03-15T13:05:24.398Z,36.60
2023-03-15T13:10:50.949Z,36.80
2023-03-15T13:16:07.637Z,36.80
2023-03-15T13:21:16.527Z,36.80
2023-03-15T13:26:43.337Z,36.80
2023-03-15T13:31:47.269Z,37.00
2023-03-15T13:36:55.750Z,37.20
2023-03-15T13:42:01.124Z,37.20
2023-03-15T13:47:03.995Z,37.30
2023-03-15T13:52:12.272Z,37.50
2023-03-15T13:57:18.261Z,37.50
2023-03-15T14:02:25.100Z,37.50
2023-03-15T14:07:30.720Z,37.50
2023-03-15T14:12:35.290Z,37.40
2023-03-15T14:17:38.267Z,37.40
2023-03-15T14:22:43.440Z,37.40
2023-03-15T14:27:47.787Z,37.50
2023-03-15T14:32:55.326Z,37.40
2023-03-15T14:38:02.859Z,37.50
2023-03-15T14:43:08.560Z,37.40
2023-03-15T14:48:14.799Z,37.50
2023-03-15T14:53:19.999Z,37.40
2023-03-15T14:58:24.381Z,37.20
2023-03-15T15:03:33.872Z,37.10
2023-03-15T15:08:40.045Z,37.00
2023-03-15T15:13:44.330Z,37.00
2023-03-15T15:18:47.208Z,37.00
2023-03-15T15:23:58.311Z,37.10
2023-03-15T15:29:03.255Z,37.00
2023-03-15T15:34:06.201Z,37.00
2023-03-15T15:39:21.234Z,37.00
2023-03-15T15:44:26.472Z,37.10
2023-03-15T15:49:29.302Z,37.00
2023-03-15T15:54:35.737Z,36.80
2023-03-15T15:59:39.944Z,36.80
2023-03-15T16:04:42.776Z,36.80
2023-03-15T16:09:48.997Z,36.70
2023-03-15T16:14:53.216Z,36.80
2023-03-15T16:19:56.092Z,36.70
2023-03-15T16:25:01.439Z,36.70
2023-03-15T16:30:07.319Z,36.70
2023-03-15T16:35:15.319Z,36.80
2023-03-15T16:40:23.741Z,36.80
2023-03-15T16:45:28.679Z,36.70
2023-03-15T16:50:32.534Z,36.60
2023-03-15T16:55:35.366Z,36.70
2023-03-15T17:00:39.565Z,36.70
2023-03-15T17:05:43.673Z,36.90
2023-03-15T17:10:47.344Z,37.20
2023-03-15T17:15:51.554Z,37.60
2023-03-15T17:20:54.409Z,37.70
2023-03-15T17:25:57.392Z,37.40
2023-03-15T17:31:23.183Z,37.20
2023-03-15T17:36:26.289Z,37.10
2023-03-15T17:41:30.705Z,37.10
2023-03-15T17:46:35.056Z,37.00
2023-03-15T17:51:39.259Z,37.00
2023-03-15T17:56:42.292Z,37.00
2023-03-15T18:01:48.748Z,37.00
2023-03-15T18:06:53.090Z,37.00
2023-03-15T18:11:56.009Z,37.00
2023-03-15T18:17:00.250Z,36.90
2023-03-15T18:22:03.085Z,37.00
2023-03-15T18:27:05.941Z,37.00
2023-03-15T18:32:11.426Z,36.80
2023-03-15T18:37:14.377Z,36.60
2023-03-15T18:42:17.222Z,36.70
2023-03-15T18:47:21.475Z,35.60
2023-03-15T18:52:24.633Z,35.10
2023-03-15T18:57:27.501Z,34.80
2023-03-15T19:02:31.804Z,34.50
2023-03-15T19:07:34.748Z,34.20
2023-03-15T19:12:37.800Z,34.00
2023-03-15T19:17:42.735Z,33.70
2023-03-15T19:22:45.964Z,33.60
2023-03-15T19:27:49.290Z,33.30
2023-03-15T19:32:53.804Z,32.80
2023-03-15T19:37:57.105Z,32.80
2023-03-15T19:43:00.531Z,33.20
2023-03-15T19:48:05.021Z,33.20
2023-03-15T19:53:07.968Z,33.20
2023-03-15T19:58:10.864Z,32.50
2023-03-15T20:03:15.043Z,32.90
2023-03-15T20:08:18.036Z,33.00
2023-03-15T20:13:20.847Z,33.10
2023-03-15T20:18:25.081Z,33.00
2023-03-15T20:23:28.493Z,32.90
2023-03-15T20:28:31.334Z,32.80
2023-03-15T20:33:35.693Z,32.10
2023-03-15T20:38:38.596Z,32.20
2023-03-15T20:43:42.329Z,32.30
2023-03-15T20:48:46.656Z,32.40
2023-03-15T20:53:49.473Z,32.60
2023-03-15T20:58:52.697Z,32.50
2023-03-15T21:03:57.449Z,32.10
2023-03-15T21:09:00.339Z,32.20
2023-03-15T21:14:03.195Z,32.20
2023-03-15T21:19:07.373Z,32.20
2023-03-15T21:24:10.512Z,32.20
2023-03-15T21:29:13.309Z,32.30
2023-03-15T21:34:17.567Z,32.00
2023-03-15T21:39:20.422Z,32.10
2023-03-15T21:44:23.275Z,32.10
2023-03-15T21:49:27.548Z,32.20
2023-03-15T21:54:30.565Z,32.20
2023-03-15T21:59:33.611Z,32.20
2023-03-15T22:04:37.881Z,32.20
2023-03-15T22:09:41.847Z,32.20
2023-03-15T22:14:45.920Z,32.30
2023-03-15T22:19:51.677Z,32.40
2023-03-15T22:24:54.578Z,32.40
2023-03-15T22:29:57.437Z,32.40
2023-03-15T22:35:01.642Z,32.50
2023-03-15T22:40:05.862Z,32.60
2023-03-15T22:45:10.273Z,32.60
2023-03-15T22:50:14.768Z,32.40
2023-03-15T22:55:19.069Z,32.40
2023-03-15T23:00:23.440Z,32.50
2023-03-15T23:05:27.767Z,32.40
2023-03-15T23:10:31.324Z,32.30
2023-03-15T23:15:34.477Z,32.40
2023-03-15T23:20:38.706Z,32.20
2023-03-15T23:25:41.591Z,32.20
2023-03-15T23:30:45.585Z,32.20
2023-03-15T23:35:49.797Z,32.10
2023-03-15T23:40:56.165Z,32.00
2023-03-15T23:45:59.934Z,32.00
2023-03-15T23:51:04.329Z,32.10
2023-03-15T23:56:07.886Z,32.00
